Time;durP1;ratioP1;P1;durP2;ratioP2;P2;SDS_P1;SDS_P2;PMS_P1;PMS_P2;Temp;Humidity;BMP_temperature;BMP_pressure;BME280_temperature;BME280_humidity;BME280_pressure;Samples;Min_cycle;Max_cycle;Signal;HPM_P1;HPM_P2
2022/01/01 00:05:55;;;;;;;11.97;5.30;;;13.60;99.90;;;;;;21000035;28;20284;-71
2022/01/01 00:15:57;;;;;;;5.53;4.60;;;13.50;99.90;;;;;;20999036;28;20244;-69
2022/01/01 00:25:59;;;;;;;8.93;5.50;;;13.40;99.90;;;;;;20998555;28;20244;-71
2022/01/01 00:36:00;;;;;;;7.60;4.77;;;13.30;99.90;;;;;;20996135;28;20694;-69
2022/01/01 00:46:02;;;;;;;7.80;4.90;;;13.30;99.90;;;;;;20996761;28;20212;-73
2022/01/01 00:56:04;;;;;;;5.30;4.50;;;13.20;99.90;;;;;;20991270;28;20292;-72
2022/01/01 01:06:06;;;;;;;6.33;4.43;;;13.10;99.90;;;;;;20994507;28;20232;-72
2022/01/01 01:16:08;;;;;;;6.70;4.63;;;13.00;99.90;;;;;;20994261;28;20239;-73
2022/01/01 01:26:09;;;;;;;6.43;5.20;;;13.00;99.90;;;;;;20994287;28;20237;-70
2022/01/01 01:36:12;;;;;;;6.97;5.03;;;12.90;99.90;;;;;;20993362;28;20242;-67
2022/01/01 01:46:14;;;;;;;6.67;5.23;;;12.90;99.90;;;;;;20992866;28;20209;-71
2022/01/01 01:56:16;;;;;;;7.20;4.77;;;12.80;99.90;;;;;;20993013;28;20783;-72
2022/01/01 02:06:20;;;;;;;7.37;5.13;;;12.80;99.90;;;;;;20992241;28;20680;-68
2022/01/01 02:26:30;;;;;;;10.67;5.17;;;12.70;99.90;;;;;;21008450;28;20266;-68
2022/01/01 02:36:42;;;;;;;6.97;5.00;;;12.70;99.90;;;;;;21007277;28;20637;-69
2022/01/01 02:46:44;;;;;;;6.07;4.90;;;12.80;99.90;;;;;;21007580;28;20261;-70
2022/01/01 02:56:48;;;;;;;6.43;4.33;;;12.80;99.90;;;;;;20922796;28;20267;-72
2022/01/01 03:06:54;;;;;;;5.53;4.50;;;12.80;99.90;;;;;;20924320;28;20250;-73
2022/01/01 03:16:56;;;;;;;8.50;4.57;;;12.80;99.90;;;;;;20923600;28;20231;-70
2022/01/01 03:26:59;;;;;;;6.07;4.30;;;12.80;99.90;;;;;;20921489;28;20207;-72
2022/01/01 03:37:01;;;;;;;6.27;4.80;;;12.80;99.90;;;;;;20922161;28;20232;-71
2022/01/01 03:47:12;;;;;;;7.20;4.77;;;12.80;99.90;;;;;;20920983;28;20204;-70
2022/01/01 03:57:14;;;;;;;7.70;5.07;;;12.70;99.90;;;;;;20920579;28;20326;-70
2022/01/01 04:07:15;;;;;;;7.10;5.27;;;12.60;99.90;;;;;;20919695;28;20233;-71
2022/01/01 04:17:18;;;;;;;6.57;4.87;;;12.60;99.90;;;;;;20918565;28;20577;-72
2022/01/01 04:27:19;;;;;;;7.67;5.20;;;12.50;99.90;;;;;;20917750;28;20220;-69
2022/01/01 04:37:21;;;;;;;8.07;5.30;;;12.40;99.90;;;;;;20916866;28;20289;-69
2022/01/01 04:47:23;;;;;;;8.00;5.03;;;12.30;99.90;;;;;;20914362;28;20205;-70
2022/01/01 04:57:30;;;;;;;6.57;5.40;;;12.30;99.90;;;;;;20912535;28;20232;-71
2022/01/01 05:07:31;;;;;;;8.80;5.40;;;12.30;99.90;;;;;;20914747;28;20232;-73
2022/01/01 05:17:33;;;;;;;9.70;5.93;;;12.30;99.90;;;;;;20913943;28;20641;-72
2022/01/01 05:27:36;;;;;;;10.53;5.90;;;12.30;99.90;;;;;;20912240;28;20202;-70
2022/01/01 05:37:38;;;;;;;7.97;5.93;;;12.30;99.90;;;;;;20913166;28;20320;-70
2022/01/01 05:47:41;;;;;;;7.67;5.70;;;12.30;99.90;;;;;;20911886;28;20667;-69
2022/01/01 05:57:42;;;;;;;10.53;5.53;;;12.30;99.90;;;;;;20911990;28;20239;-70
2022/01/01 06:07:44;;;;;;;10.67;5.40;;;12.30;99.90;;;;;;20911836;28;20285;-71
2022/01/01 06:17:46;;;;;;;9.33;5.33;;;12.50;99.90;;;;;;20911627;28;20757;-72
2022/01/01 06:27:47;;;;;;;8.63;6.10;;;12.50;99.90;;;;;;20910884;28;20207;-70
2022/01/01 06:37:49;;;;;;;8.70;5.17;;;12.50;99.90;;;;;;20910888;28;20567;-71
2022/01/01 06:47:51;;;;;;;9.67;6.00;;;12.50;99.90;;;;;;20910057;28;20207;-70
2022/01/01 06:57:52;;;;;;;9.47;6.20;;;12.50;99.90;;;;;;20983122;28;20288;-70
2022/01/01 07:07:54;;;;;;;7.83;5.50;;;12.50;99.90;;;;;;21006335;28;20281;-70
2022/01/01 07:17:56;;;;;;;9.88;6.70;;;12.30;99.90;;;;;;21001762;28;20454;-71
2022/01/01 07:27:57;;;;;;;9.37;6.10;;;12.90;99.90;;;;;;21003609;28;20216;-72
2022/01/01 07:37:59;;;;;;;9.63;6.00;;;12.50;99.90;;;;;;21004807;28;20311;-70
2022/01/01 07:48:01;;;;;;;11.17;5.43;;;12.50;99.90;;;;;;21003656;28;20260;-70
2022/01/01 07:58:05;;;;;;;10.03;6.27;;;12.50;99.90;;;;;;21001688;28;20632;-70
2022/01/01 08:08:06;;;;;;;12.27;6.70;;;12.50;99.90;;;;;;21001298;28;20231;-71
2022/01/01 08:18:08;;;;;;;10.23;6.13;;;12.60;99.90;;;;;;20999997;28;20234;-69
2022/01/01 08:28:12;;;;;;;9.63;6.90;;;12.60;99.90;;;;;;21000287;28;20238;-73
2022/01/01 08:38:14;;;;;;;8.67;6.77;;;12.60;99.90;;;;;;20999161;28;20285;-70
2022/01/01 08:48:15;;;;;;;11.47;7.10;;;12.70;99.90;;;;;;20998914;28;20540;-70
2022/01/01 08:58:17;;;;;;;9.60;6.30;;;12.70;99.90;;;;;;20987650;28;20234;-70
2022/01/01 09:08:28;;;;;;;9.37;6.93;;;12.80;99.90;;;;;;20996857;28;20280;-72
2022/01/01 09:18:30;;;;;;;11.10;7.00;;;12.80;99.90;;;;;;20996333;28;20225;-72
2022/01/01 09:28:34;;;;;;;11.87;7.40;;;12.80;99.90;;;;;;20994691;28;20216;-72
2022/01/01 09:38:35;;;;;;;9.87;6.97;;;12.90;99.90;;;;;;20994312;28;20309;-71
2022/01/01 09:48:38;;;;;;;8.23;6.30;;;13.00;99.90;;;;;;20993893;28;20253;-71
2022/01/01 09:58:40;;;;;;;7.90;5.90;;;13.10;99.90;;;;;;20994325;28;20295;-71
2022/01/01 10:08:45;;;;;;;10.13;6.50;;;13.20;99.90;;;;;;20993373;28;20304;-72
2022/01/01 10:18:52;;;;;;;9.47;5.40;;;13.30;99.90;;;;;;20992366;28;20684;-71
2022/01/01 10:28:54;;;;;;;8.87;5.50;;;13.40;99.60;;;;;;20992234;28;20207;-71
2022/01/01 10:39:11;;;;;;;8.27;5.43;;;13.60;99.20;;;;;;21005112;28;20227;-72
2022/01/01 10:59:50;;;;;;;8.03;5.20;;;13.80;98.60;;;;;;20966384;28;20261;-74
2022/01/01 11:09:56;;;;;;;6.10;4.57;;;13.90;98.40;;;;;;21006904;28;20238;-73
2022/01/01 11:20:00;;;;;;;9.03;4.47;;;14.00;98.20;;;;;;21003982;28;20292;-67
2022/01/01 11:41:43;;;;;;;6.80;4.30;;;14.50;97.50;;;;;;20914118;28;20232;-64
2022/01/01 11:51:52;;;;;;;5.57;3.90;;;14.70;97.20;;;;;;20905393;28;20595;-71
2022/01/01 12:02:00;;;;;;;5.17;3.60;;;14.70;97.10;;;;;;20922877;28;20727;-72
2022/01/01 12:12:05;;;;;;;5.30;3.30;;;14.80;96.80;;;;;;20922193;28;20192;-70
2022/01/01 12:22:07;;;;;;;5.67;3.23;;;14.80;96.30;;;;;;20920124;28;20260;-69
2022/01/01 12:32:10;;;;;;;4.90;3.10;;;14.80;95.80;;;;;;20920310;28;20207;-68
2022/01/01 12:42:34;;;;;;;4.63;3.27;;;14.80;95.40;;;;;;20918047;28;20596;-66
2022/01/01 12:52:36;;;;;;;3.87;2.40;;;14.90;95.20;;;;;;20917408;28;20212;-63
2022/01/01 13:02:37;;;;;;;5.13;2.40;;;14.90;95.00;;;;;;20916666;28;20227;-64
2022/01/01 13:12:39;;;;;;;3.97;2.87;;;14.90;94.60;;;;;;20917619;28;20200;-64
2022/01/01 13:22:41;;;;;;;4.03;2.60;;;14.90;94.40;;;;;;20933060;28;20230;-70
2022/01/01 13:32:44;;;;;;;4.93;2.53;;;15.00;94.40;;;;;;20915284;28;20247;-62
2022/01/01 13:42:46;;;;;;;4.57;2.30;;;15.00;94.50;;;;;;20914132;28;20605;-61
2022/01/01 13:52:53;;;;;;;5.67;2.83;;;14.90;94.30;;;;;;20915417;28;20206;-63
2022/01/01 14:02:56;;;;;;;3.90;2.30;;;14.90;94.30;;;;;;20919386;28;20242;-68
2022/01/01 14:13:00;;;;;;;5.50;2.23;;;14.80;94.30;;;;;;20930336;28;20205;-72
2022/01/01 14:23:04;;;;;;;5.73;2.60;;;14.80;94.40;;;;;;20930472;28;20227;-66
2022/01/01 14:33:08;;;;;;;4.27;2.93;;;14.80;94.50;;;;;;20934078;28;20197;-68
2022/01/01 14:43:11;;;;;;;4.53;2.50;;;14.70;94.50;;;;;;20931530;28;20220;-70
2022/01/01 14:53:21;;;;;;;4.93;3.10;;;14.70;94.50;;;;;;20927473;28;20204;-72
2022/01/01 15:03:23;;;;;;;6.67;3.30;;;14.70;94.70;;;;;;20927568;28;20276;-73
2022/01/01 15:13:27;;;;;;;7.50;3.17;;;14.60;95.00;;;;;;20925623;28;20207;-72
2022/01/01 15:23:40;;;;;;;7.50;3.47;;;14.60;95.40;;;;;;20925905;28;20561;-68
2022/01/01 15:33:43;;;;;;;6.10;3.83;;;14.60;95.80;;;;;;20925647;28;20289;-66
2022/01/01 15:43:48;;;;;;;8.57;4.50;;;14.40;96.00;;;;;;20924455;28;20220;-64
2022/01/01 15:53:52;;;;;;;9.53;5.70;;;14.30;96.30;;;;;;20923849;28;20207;-66
2022/01/01 16:04:06;;;;;;;5.90;4.17;;;14.20;96.50;;;;;;20922814;28;20724;-64
2022/01/01 16:14:10;;;;;;;7.93;4.83;;;13.90;96.80;;;;;;20926932;28;20707;-64
2022/01/01 16:24:14;;;;;;;11.67;5.87;;;13.60;97.10;;;;;;20921919;28;20269;-72
2022/01/01 16:34:21;;;;;;;9.60;6.70;;;13.40;97.50;;;;;;20919432;28;20232;-68
2022/01/01 16:44:32;;;;;;;10.50;5.93;;;13.30;97.70;;;;;;20919626;28;20193;-67
2022/01/01 16:54:34;;;;;;;8.60;6.30;;;13.10;97.90;;;;;;20918519;28;20224;-66
2022/01/01 17:04:40;;;;;;;12.13;6.93;;;13.00;98.10;;;;;;20917942;28;20208;-71
2022/01/01 17:14:42;;;;;;;12.43;5.50;;;12.90;98.30;;;;;;20917562;28;20227;-64
2022/01/01 17:24:53;;;;;;;10.23;5.43;;;12.70;98.40;;;;;;20915701;28;20246;-69
2022/01/01 17:35:02;;;;;;;9.00;6.07;;;12.60;98.50;;;;;;20915749;28;20576;-69
2022/01/01 17:45:04;;;;;;;10.77;6.50;;;12.60;98.60;;;;;;20914810;28;20200;-71
2022/01/01 17:55:09;;;;;;;15.27;10.47;;;12.40;98.50;;;;;;20915140;28;20227;-63
2022/01/01 18:05:12;;;;;;;14.13;9.77;;;12.30;98.60;;;;;;20914434;28;20212;-67
2022/01/01 18:15:15;;;;;;;18.07;11.07;;;12.20;98.60;;;;;;20914026;28;20230;-66
2022/01/01 18:25:26;;;;;;;18.80;12.77;;;11.80;98.30;;;;;;20912958;28;20351;-65
2022/01/01 18:35:30;;;;;;;16.90;11.00;;;11.80;98.40;;;;;;20915049;28;20243;-73
2022/01/01 18:45:31;;;;;;;26.40;16.20;;;11.50;98.40;;;;;;20913291;28;20247;-72
2022/01/01 18:55:35;;;;;;;21.87;13.17;;;11.40;98.80;;;;;;20921019;28;20234;-72
2022/01/01 19:05:38;;;;;;;23.20;13.27;;;11.20;99.00;;;;;;20927348;28;20213;-74
2022/01/01 19:15:45;;;;;;;24.80;15.30;;;11.20;98.90;;;;;;20927091;28;20659;-67
2022/01/01 19:25:49;;;;;;;24.57;15.97;;;11.00;99.00;;;;;;20925994;28;20267;-72
2022/01/01 19:35:51;;;;;;;25.13;13.47;;;11.10;99.00;;;;;;20926205;28;20245;-70
2022/01/01 19:45:56;;;;;;;23.10;14.03;;;10.90;99.00;;;;;;20933014;28;20210;-70
2022/01/01 19:56:03;;;;;;;22.63;14.20;;;10.90;99.30;;;;;;20924373;28;20352;-69
2022/01/01 20:06:04;;;;;;;21.07;14.77;;;10.80;99.30;;;;;;20921854;28;20639;-71
2022/01/01 20:16:06;;;;;;;20.50;12.97;;;10.70;99.40;;;;;;20921921;28;20266;-68
2022/01/01 20:26:08;;;;;;;18.50;11.60;;;10.60;99.50;;;;;;20921111;28;20738;-71
2022/01/01 20:36:09;;;;;;;16.87;11.37;;;10.40;99.50;;;;;;20919602;28;20289;-68
2022/01/01 20:46:11;;;;;;;22.63;12.40;;;10.20;99.50;;;;;;20919571;28;20709;-69
2022/01/01 20:56:13;;;;;;;20.33;11.57;;;10.20;99.80;;;;;;20922101;28;20228;-69
2022/01/01 21:06:20;;;;;;;23.40;13.73;;;10.20;99.70;;;;;;20918879;28;20204;-66
2022/01/01 21:16:23;;;;;;;18.73;12.87;;;10.10;99.20;;;;;;20915808;28;20224;-66
2022/01/01 21:26:26;;;;;;;32.90;18.03;;;10.10;99.40;;;;;;20916642;28;20208;-70
2022/01/01 21:47:50;;;;;;;25.73;14.53;;;9.80;99.60;;;;;;20914683;28;20176;-68
2022/01/01 21:57:51;;;;;;;28.63;16.47;;;9.70;99.70;;;;;;20915316;28;20575;-66
2022/01/01 22:07:53;;;;;;;22.43;13.37;;;9.70;99.80;;;;;;20913706;28;20204;-66
2022/01/01 22:17:55;;;;;;;17.83;11.73;;;9.60;99.70;;;;;;20914423;28;20732;-66
2022/01/01 22:27:56;;;;;;;18.90;11.50;;;9.40;99.80;;;;;;20919416;28;20209;-66
2022/01/01 22:38:01;;;;;;;18.50;12.23;;;9.40;99.90;;;;;;20929074;28;20296;-66
2022/01/01 22:48:04;;;;;;;24.53;13.70;;;9.40;99.90;;;;;;20927864;28;20214;-66
2022/01/01 22:58:07;;;;;;;26.53;14.47;;;9.40;99.80;;;;;;20928341;28;20745;-66
2022/01/01 23:08:10;;;;;;;23.27;14.67;;;9.50;99.90;;;;;;20927725;28;20262;-66
2022/01/01 23:28:20;;;;;;;20.37;12.77;;;9.30;99.90;;;;;;20926351;28;20212;-67
2022/01/01 23:38:23;;;;;;;20.23;12.60;;;9.30;99.90;;;;;;20924366;28;20245;-70
2022/01/01 23:48:26;;;;;;;21.87;13.33;;;9.30;99.90;;;;;;20924413;28;20200;-71
2022/01/01 23:58:42;;;;;;;21.60;13.57;;;9.30;99.80;;;;;;20923746;28;20758;-73
